Time,TemperatureF,DewpointF,PressureIn,WindDirection,WindDirectionDegrees,WindSpeedMPH,WindSpeedGustMPH,Humidity,HourlyPrecipIn,Conditions,Clouds,dailyrainin,SoftwareType,DateUTC
2013-03-09 00:00:00,51.2,36.1,30.10,East,79,5.8,5.8,56,0.00,,,0.00,VWS V13.01,2013-03-09 06:00:00,
2013-03-09 00:05:00,51.2,36.1,30.10,ENE,61,4.0,4.9,56,0.00,,,0.00,VWS V13.01,2013-03-09 06:05:00,
2013-03-09 00:10:00,51.1,35.9,30.10,ENE,64,6.3,6.3,56,0.00,,,0.00,VWS V13.01,2013-03-09 06:10:00,
2013-03-09 00:15:00,51.1,35.9,30.07,ENE,70,5.4,5.4,56,0.00,,,0.00,VWS V13.01,2013-03-09 06:15:00,
2013-03-09 00:20:00,51.1,35.9,30.07,ENE,66,4.0,5.4,56,0.00,,,0.00,VWS V13.01,2013-03-09 06:20:00,
2013-03-09 00:25:00,51.1,35.9,30.07,ENE,71,5.4,5.4,56,0.00,,,0.00,VWS V13.01,2013-03-09 06:25:00,
2013-03-09 00:30:00,51.1,35.9,30.10,East,80,4.0,5.4,56,0.00,,,0.00,VWS V13.01,2013-03-09 06:30:00,
2013-03-09 00:35:00,51.1,35.9,30.10,NE,54,4.9,4.9,56,0.00,,,0.00,VWS V13.01,2013-03-09 06:35:00,
2013-03-09 00:40:00,51.1,35.9,30.10,ENE,75,5.8,5.8,56,0.00,,,0.00,VWS V13.01,2013-03-09 06:40:00,
2013-03-09 00:45:00,51.1,35.9,30.10,NE,46,5.4,5.4,56,0.00,,,0.00,VWS V13.01,2013-03-09 06:45:00,
2013-03-09 00:50:00,51.1,35.9,30.10,ENE,62,5.4,7.6,56,0.00,,,0.00,VWS V13.01,2013-03-09 06:50:00,
2013-03-09 00:55:00,51.1,35.9,30.10,NE,40,4.9,5.8,56,0.00,,,0.00,VWS V13.01,2013-03-09 06:55:00,
2013-03-09 01:00:00,51.1,35.9,30.10,NE,46,6.3,6.3,56,0.00,,,0.00,VWS V13.01,2013-03-09 07:00:00,
2013-03-09 01:05:00,51.1,35.9,30.10,ENE,72,3.6,3.6,56,0.00,,,0.00,VWS V13.01,2013-03-09 07:05:00,
2013-03-09 01:10:00,51.1,35.9,30.10,NNE,15,4.9,5.8,56,0.00,,,0.00,VWS V13.01,2013-03-09 07:10:00,
2013-03-09 01:15:00,51.1,35.9,30.10,NE,34,4.0,4.0,56,0.00,,,0.00,VWS V13.01,2013-03-09 07:15:00,
2013-03-09 01:20:00,51.1,35.9,30.10,ENE,74,3.1,3.1,56,0.00,,,0.00,VWS V13.01,2013-03-09 07:20:00,
2013-03-09 01:25:00,51.2,36.1,30.10,ENE,74,5.4,5.4,56,0.00,,,0.00,VWS V13.01,2013-03-09 07:25:00,
2013-03-09 01:30:00,51.2,36.1,30.10,East,82,3.1,3.1,56,0.00,,,0.00,VWS V13.01,2013-03-09 07:30:00,
2013-03-09 01:35:00,51.2,36.1,30.10,NE,42,4.0,4.0,56,0.00,,,0.00,VWS V13.01,2013-03-09 07:35:00,
2013-03-09 01:40:00,51.2,36.1,30.10,NE,35,4.0,4.0,56,0.00,,,0.00,VWS V13.01,2013-03-09 07:40:00,
2013-03-09 01:45:00,51.2,36.1,30.07,East,92,7.6,7.6,56,0.00,,,0.00,VWS V13.01,2013-03-09 07:45:00,
2013-03-09 01:50:00,51.2,35.6,30.07,ENE,74,5.8,5.8,55,0.00,,,0.00,VWS V13.01,2013-03-09 07:50:00,
2013-03-09 01:55:00,51.2,36.1,30.07,East,83,3.6,5.4,56,0.00,,,0.00,VWS V13.01,2013-03-09 07:55:00,
2013-03-09 02:00:00,51.1,35.9,30.07,ENE,62,5.8,5.8,56,0.00,,,0.00,VWS V13.01,2013-03-09 08:00:00,
2013-03-09 02:05:00,51.1,35.9,30.07,ENE,66,6.3,6.3,56,0.00,,,0.00,VWS V13.01,2013-03-09 08:05:00,
2013-03-09 02:10:00,51.1,35.9,30.07,NE,56,4.9,4.9,56,0.00,,,0.00,VWS V13.01,2013-03-09 08:10:00,
2013-03-09 02:15:00,51.1,35.9,30.07,NE,49,3.6,4.9,56,0.00,,,0.00,VWS V13.01,2013-03-09 08:15:00,
2013-03-09 02:20:00,51.1,35.9,30.07,East,94,3.1,4.0,56,0.00,,,0.00,VWS V13.01,2013-03-09 08:20:00,
2013-03-09 02:25:00,51.1,35.9,30.07,NE,42,5.4,5.4,56,0.00,,,0.00,VWS V13.01,2013-03-09 08:25:00,
2013-03-09 02:30:00,51.1,35.9,30.07,ENE,69,5.4,5.4,56,0.00,,,0.00,VWS V13.01,2013-03-09 08:30:00,
2013-03-09 02:35:00,50.9,35.8,30.07,NE,51,4.0,7.6,56,0.00,,,0.00,VWS V13.01,2013-03-09 08:35:00,
2013-03-09 02:40:00,50.9,35.8,30.07,ENE,58,5.4,7.6,56,0.00,,,0.00,VWS V13.01,2013-03-09 08:40:00,
2013-03-09 02:45:00,50.7,35.6,30.04,NE,51,4.0,5.8,56,0.00,,,0.00,VWS V13.01,2013-03-09 08:45:00,
2013-03-09 02:50:00,50.7,35.6,30.04,ENE,65,4.0,5.8,56,0.00,,,0.00,VWS V13.01,2013-03-09 08:50:00,
2013-03-09 02:55:00,50.7,35.6,30.04,ENE,75,6.3,6.3,56,0.00,,,0.00,VWS V13.01,2013-03-09 08:55:00,
2013-03-09 03:00:00,50.5,35.4,30.04,ENE,77,4.9,5.4,56,0.00,,,0.00,VWS V13.01,2013-03-09 09:00:00,
2013-03-09 03:05:00,50.5,35.4,30.04,NE,47,5.4,5.4,56,0.00,,,0.00,VWS V13.01,2013-03-09 09:05:00,
2013-03-09 03:10:00,50.3,35.3,30.04,ENE,69,3.6,4.5,56,0.00,,,0.00,VWS V13.01,2013-03-09 09:10:00,
2013-03-09 03:15:00,50.3,35.3,30.04,NE,39,4.0,4.0,56,0.00,,,0.00,VWS V13.01,2013-03-09 09:15:00,
2013-03-09 03:20:00,50.3,35.3,30.04,ENE,63,5.8,6.3,56,0.00,,,0.00,VWS V13.01,2013-03-09 09:20:00,
2013-03-09 03:25:00,50.3,35.3,30.04,NE,56,4.0,4.0,56,0.00,,,0.00,VWS V13.01,2013-03-09 09:25:00,
2013-03-09 03:29:00,50.3,35.3,30.01,NE,50,2.7,4.0,56,0.00,,,0.00,VWS V13.01,2013-03-09 09:29:00,
2013-03-09 03:34:00,50.3,35.3,30.01,NNE,32,5.4,6.3,56,0.00,,,0.00,VWS V13.01,2013-03-09 09:34:00,
2013-03-09 03:39:00,50.3,35.3,30.01,ENE,58,3.6,3.6,56,0.00,,,0.00,VWS V13.01,2013-03-09 09:39:00,
2013-03-09 03:44:00,50.3,35.3,30.01,ENE,60,7.2,7.2,56,0.00,,,0.00,VWS V13.01,2013-03-09 09:44:00,
2013-03-09 03:49:00,50.3,35.3,30.01,ENE,68,8.1,8.1,56,0.00,,,0.00,VWS V13.01,2013-03-09 09:49:00,
2013-03-09 03:54:00,50.3,35.3,30.01,ENE,70,4.0,4.0,56,0.00,,,0.00,VWS V13.01,2013-03-09 09:54:00,
2013-03-09 03:59:00,50.3,35.3,30.01,ENE,63,3.6,3.6,56,0.00,,,0.00,VWS V13.01,2013-03-09 09:59:00,
2013-03-09 04:04:00,50.3,35.3,30.01,ENE,72,4.9,4.9,56,0.00,,,0.00,VWS V13.01,2013-03-09 10:04:00,
2013-03-09 04:09:00,50.3,35.3,30.01,ENE,64,2.7,3.1,56,0.00,,,0.00,VWS V13.01,2013-03-09 10:09:00,
2013-03-09 04:14:00,50.5,35.4,30.01,ENE,67,3.6,4.9,56,0.00,,,0.00,VWS V13.01,2013-03-09 10:14:00,
2013-03-09 04:19:00,50.3,35.3,30.01,NE,38,4.0,4.0,56,0.00,,,0.00,VWS V13.01,2013-03-09 10:19:00,
2013-03-09 04:24:00,50.3,35.3,30.01,NNE,25,4.0,4.0,56,0.00,,,0.00,VWS V13.01,2013-03-09 10:24:00,
2013-03-09 04:29:00,50.3,35.3,30.01,NE,49,4.0,4.0,56,0.00,,,0.00,VWS V13.01,2013-03-09 10:29:00,
2013-03-09 04:34:00,50.2,35.1,30.01,NE,46,2.7,4.0,56,0.00,,,0.00,VWS V13.01,2013-03-09 10:34:00,
2013-03-09 04:39:00,50.2,35.1,30.01,ENE,62,3.6,4.0,56,0.00,,,0.00,VWS V13.01,2013-03-09 10:39:00,
2013-03-09 04:44:00,50.0,34.9,30.01,NE,54,2.7,2.7,56,0.00,,,0.00,VWS V13.01,2013-03-09 10:44:00,
2013-03-09 04:49:00,50.0,34.9,30.01,NE,43,2.7,3.1,56,0.00,,,0.00,VWS V13.01,2013-03-09 10:49:00,
2013-03-09 04:54:00,50.0,34.9,30.01,NE,36,3.6,4.0,56,0.00,,,0.00,VWS V13.01,2013-03-09 10:54:00,
2013-03-09 04:59:00,49.8,34.8,30.01,ENE,60,2.7,3.1,56,0.00,,,0.00,VWS V13.01,2013-03-09 10:59:00,
2013-03-09 05:04:00,49.6,34.6,30.01,NE,48,4.0,4.0,56,0.00,,,0.00,VWS V13.01,2013-03-09 11:04:00,
2013-03-09 05:09:00,49.6,35.0,30.01,NE,49,2.7,3.6,57,0.00,,,0.00,VWS V13.01,2013-03-09 11:09:00,
2013-03-09 05:14:00,49.6,35.0,29.98,NE,49,2.2,4.0,57,0.00,,,0.00,VWS V13.01,2013-03-09 11:14:00,
2013-03-09 05:19:00,49.4,34.9,29.98,NE,39,3.1,3.1,57,0.00,,,0.00,VWS V13.01,2013-03-09 11:19:00,
2013-03-09 05:24:00,49.4,34.9,29.98,NNE,32,3.6,3.6,57,0.00,,,0.00,VWS V13.01,2013-03-09 11:24:00,
2013-03-09 05:29:00,49.3,34.7,30.01,NE,47,2.7,3.1,57,0.00,,,0.00,VWS V13.01,2013-03-09 11:29:00,
2013-03-09 05:34:00,49.1,34.5,30.01,NNE,28,3.1,3.1,57,0.00,,,0.00,VWS V13.01,2013-03-09 11:34:00,
2013-03-09 05:39:00,49.1,34.5,30.01,NNE,22,2.2,2.7,57,0.00,,,0.00,VWS V13.01,2013-03-09 11:39:00,
2013-03-09 05:44:00,48.9,34.3,30.01,NNE,28,3.1,3.1,57,0.00,,,0.00,VWS V13.01,2013-03-09 11:44:00,
2013-03-09 05:49:00,48.9,34.3,30.01,NNW,334,0.0,2.7,57,0.00,,,0.00,VWS V13.01,2013-03-09 11:49:00,
2013-03-09 05:54:00,48.9,34.3,30.01,NNE,17,3.6,3.6,57,0.00,,,0.00,VWS V13.01,2013-03-09 11:54:00,
2013-03-09 05:59:00,48.9,34.3,30.01,NE,56,3.6,3.6,57,0.00,,,0.00,VWS V13.01,2013-03-09 11:59:00,
2013-03-09 06:04:00,48.5,34.0,30.01,NE,53,2.7,2.7,57,0.00,,,0.00,VWS V13.01,2013-03-09 12:04:00,
2013-03-09 06:09:00,48.2,33.7,30.01,NE,35,3.6,4.0,57,0.00,,,0.00,VWS V13.01,2013-03-09 12:09:00,
2013-03-09 06:14:00,48.2,33.7,30.01,NE,35,2.7,3.6,57,0.00,,,0.00,VWS V13.01,2013-03-09 12:14:00,
2013-03-09 06:19:00,48.2,33.7,30.01,NE,53,3.1,3.1,57,0.00,,,0.00,VWS V13.01,2013-03-09 12:19:00,
2013-03-09 06:24:00,48.2,33.7,30.01,NE,38,4.9,4.9,57,0.00,,,0.00,VWS V13.01,2013-03-09 12:24:00,
2013-03-09 06:29:00,48.4,33.8,30.01,NE,54,3.6,5.8,57,0.00,,,0.00,VWS V13.01,2013-03-09 12:29:00,
2013-03-09 06:34:00,48.4,34.3,30.01,ENE,61,3.1,3.1,58,0.00,,,0.00,VWS V13.01,2013-03-09 12:34:00,
2013-03-09 06:39:00,48.2,34.1,30.01,ENE,60,2.7,2.7,58,0.00,,,0.00,VWS V13.01,2013-03-09 12:39:00,
2013-03-09 06:44:00,48.2,34.1,30.01,NE,42,3.1,3.1,58,0.00,,,0.00,VWS V13.01,2013-03-09 12:44:00,
2013-03-09 06:49:00,48.2,34.1,30.01,NNE,30,2.7,3.1,58,0.00,,,0.00,VWS V13.01,2013-03-09 12:49:00,
2013-03-09 06:54:00,48.2,34.1,30.01,NE,34,0.0,2.2,58,0.00,,,0.00,VWS V13.01,2013-03-09 12:54:00,
2013-03-09 06:59:00,48.2,34.1,30.01,NNE,29,4.0,4.5,58,0.00,,,0.00,VWS V13.01,2013-03-09 12:59:00,
2013-03-09 07:04:00,48.4,34.3,30.01,NE,40,3.6,3.6,58,0.00,,,0.00,VWS V13.01,2013-03-09 13:04:00,
2013-03-09 07:09:00,48.4,33.8,30.01,NE,38,0.0,0.0,57,0.00,,,0.00,VWS V13.01,2013-03-09 13:09:00,
2013-03-09 07:14:00,48.7,34.6,30.01,NNE,21,0.0,0.0,58,0.00,,,0.00,VWS V13.01,2013-03-09 13:14:00,
2013-03-09 07:19:00,48.9,34.3,30.01,NE,46,3.1,3.1,57,0.00,,,0.00,VWS V13.01,2013-03-09 13:19:00,
2013-03-09 07:24:00,49.1,34.5,30.01,NNE,32,3.1,4.0,57,0.00,,,0.00,VWS V13.01,2013-03-09 13:24:00,
2013-03-09 07:29:00,49.3,34.7,30.01,NE,40,2.7,3.1,57,0.00,,,0.00,VWS V13.01,2013-03-09 13:29:00,
2013-03-09 07:34:00,49.3,34.7,30.01,NE,40,2.7,2.7,57,0.00,,,0.00,VWS V13.01,2013-03-09 13:34:00,
2013-03-09 07:39:00,49.4,34.9,30.01,NE,37,2.2,2.2,57,0.00,,,0.00,VWS V13.01,2013-03-09 13:39:00,
2013-03-09 07:44:00,49.6,35.0,30.01,NNE,23,2.2,3.1,57,0.00,,,0.00,VWS V13.01,2013-03-09 13:44:00,
2013-03-09 07:49:00,49.8,35.2,30.01,NE,53,0.0,0.0,57,0.00,,,0.00,VWS V13.01,2013-03-09 13:49:00,
2013-03-09 07:54:00,50.2,35.1,30.01,ENE,58,0.0,0.0,56,0.00,,,0.00,VWS V13.01,2013-03-09 13:54:00,
2013-03-09 07:59:00,50.3,35.3,30.01,ENE,65,0.0,0.0,56,0.00,,,0.00,VWS V13.01,2013-03-09 13:59:00,
2013-03-09 08:04:00,50.7,35.6,30.01,ENE,77,3.1,3.6,56,0.00,,,0.00,VWS V13.01,2013-03-09 14:04:00,
2013-03-09 08:09:00,51.6,36.0,30.01,NE,40,3.1,3.1,55,0.00,,,0.00,VWS V13.01,2013-03-09 14:09:00,
2013-03-09 08:14:00,52.5,36.3,30.01,NE,46,3.1,3.1,54,0.00,,,0.00,VWS V13.01,2013-03-09 14:14:00,
2013-03-09 08:19:00,53.4,36.2,30.01,NE,47,4.5,4.5,52,0.00,,,0.00,VWS V13.01,2013-03-09 14:19:00,
2013-03-09 08:24:00,54.1,36.9,30.01,SE,129,3.6,3.6,52,0.00,,,0.00,VWS V13.01,2013-03-09 14:24:00,
2013-03-09 08:29:00,54.8,36.6,29.98,ENE,71,10.1,10.1,50,0.00,,,0.00,VWS V13.01,2013-03-09 14:29:00,
2013-03-09 08:34:00,55.4,36.6,29.98,ENE,70,5.8,6.3,49,0.00,,,0.00,VWS V13.01,2013-03-09 14:34:00,
2013-03-09 08:39:00,55.7,36.9,29.98,East,79,8.3,8.3,49,0.00,,,0.00,VWS V13.01,2013-03-09 14:39:00,
2013-03-09 08:44:00,55.7,36.9,29.98,East,94,7.6,10.1,49,0.00,,,0.00,VWS V13.01,2013-03-09 14:44:00,
2013-03-09 08:49:00,55.6,36.7,29.98,ESE,102,6.3,8.1,49,0.00,,,0.00,VWS V13.01,2013-03-09 14:49:00,
2013-03-09 08:54:00,55.6,36.7,29.98,ENE,73,4.0,11.0,49,0.00,,,0.00,VWS V13.01,2013-03-09 14:54:00,
2013-03-09 08:59:00,55.9,37.0,29.98,ENE,70,6.3,8.1,49,0.00,,,0.00,VWS V13.01,2013-03-09 14:59:00,
2013-03-09 09:04:00,55.9,37.0,29.98,ENE,77,5.4,5.4,49,0.00,,,0.00,VWS V13.01,2013-03-09 15:04:00,
2013-03-09 09:09:00,56.1,37.2,29.98,NE,56,5.4,5.4,49,0.00,,,0.00,VWS V13.01,2013-03-09 15:09:00,
2013-03-09 09:14:00,56.1,37.2,29.98,NE,43,5.8,5.8,49,0.00,,,0.00,VWS V13.01,2013-03-09 15:14:00,
2013-03-09 09:19:00,56.1,37.2,29.98,East,84,5.4,5.8,49,0.00,,,0.00,VWS V13.01,2013-03-09 15:19:00,
2013-03-09 09:24:00,56.1,37.2,29.98,ENE,58,6.3,6.3,49,0.00,,,0.00,VWS V13.01,2013-03-09 15:24:00,
2013-03-09 09:29:00,56.1,37.2,29.98,East,85,5.4,5.4,49,0.00,,,0.00,VWS V13.01,2013-03-09 15:29:00,
2013-03-09 09:34:00,56.1,37.7,29.98,ESE,108,5.8,5.8,50,0.00,,,0.00,VWS V13.01,2013-03-09 15:34:00,
2013-03-09 09:39:00,56.3,37.9,29.98,East,79,5.4,5.4,50,0.00,,,0.00,VWS V13.01,2013-03-09 15:39:00,
2013-03-09 09:44:00,56.5,38.1,29.95,East,88,3.6,5.8,50,0.00,,,0.00,VWS V13.01,2013-03-09 15:44:00,
2013-03-09 09:49:00,56.5,38.1,29.95,ENE,73,5.4,6.3,50,0.00,,,0.00,VWS V13.01,2013-03-09 15:49:00,
2013-03-09 09:54:00,56.6,38.2,29.95,NE,54,5.8,5.8,50,0.00,,,0.00,VWS V13.01,2013-03-09 15:54:00,
2013-03-09 09:59:00,56.6,38.7,29.98,ENE,74,3.6,5.8,51,0.00,,,0.00,VWS V13.01,2013-03-09 15:59:00,
2013-03-09 10:04:00,57.0,38.6,29.98,NE,54,5.4,5.8,50,0.00,,,0.00,VWS V13.01,2013-03-09 16:04:00,
2013-03-09 10:09:00,57.0,38.6,29.98,ENE,66,3.1,7.6,50,0.00,,,0.00,VWS V13.01,2013-03-09 16:09:00,
2013-03-09 10:14:00,57.4,38.9,29.98,SE,131,8.1,8.1,50,0.00,,,0.00,VWS V13.01,2013-03-09 16:14:00,
2013-03-09 10:19:00,57.4,38.9,29.98,ENE,62,5.8,8.3,50,0.00,,,0.00,VWS V13.01,2013-03-09 16:19:00,
2013-03-09 10:24:00,57.4,38.9,29.98,NNE,29,5.4,8.3,50,0.00,,,0.00,VWS V13.01,2013-03-09 16:24:00,
2013-03-09 10:29:00,57.4,38.9,29.95,ENE,68,6.3,8.1,50,0.00,,,0.00,VWS V13.01,2013-03-09 16:29:00,
2013-03-09 10:33:00,57.4,38.9,29.95,NE,55,6.3,6.3,50,0.00,,,0.00,VWS V13.01,2013-03-09 16:33:00,
2013-03-09 10:38:00,57.4,39.4,29.95,ENE,64,5.4,5.4,51,0.00,,,0.00,VWS V13.01,2013-03-09 16:38:00,
2013-03-09 10:43:00,57.7,40.2,29.95,NE,54,3.6,5.4,52,0.00,,,0.00,VWS V13.01,2013-03-09 16:43:00,
2013-03-09 10:48:00,58.1,39.6,29.95,North,356,4.9,5.8,50,0.00,,,0.00,VWS V13.01,2013-03-09 16:48:00,
2013-03-09 10:53:00,58.4,40.4,29.95,ENE,68,5.8,6.3,51,0.00,,,0.00,VWS V13.01,2013-03-09 16:53:00,
2013-03-09 10:58:00,58.4,39.9,29.95,NE,40,6.3,6.3,50,0.00,,,0.00,VWS V13.01,2013-03-09 16:58:00,
2013-03-09 11:03:00,58.1,40.1,29.95,ENE,75,6.3,8.7,51,0.00,,,0.00,VWS V13.01,2013-03-09 17:03:00,
2013-03-09 11:08:00,58.3,40.7,29.95,NNE,30,4.9,5.8,52,0.00,,,0.00,VWS V13.01,2013-03-09 17:08:00,
2013-03-09 11:13:00,58.6,41.1,29.95,ENE,71,5.8,6.3,52,0.00,,,0.00,VWS V13.01,2013-03-09 17:13:00,
2013-03-09 11:18:00,58.8,41.7,29.95,NE,56,5.4,5.4,53,0.00,,,0.00,VWS V13.01,2013-03-09 17:18:00,
2013-03-09 11:23:00,59.3,41.2,29.95,East,79,4.0,6.7,51,0.00,,,0.00,VWS V13.01,2013-03-09 17:23:00,
2013-03-09 11:28:00,59.7,41.6,29.95,ESE,105,8.3,8.3,51,0.00,,,0.00,VWS V13.01,2013-03-09 17:28:00,
2013-03-09 11:33:00,59.5,41.9,29.95,ENE,75,5.8,6.3,52,0.00,,,0.00,VWS V13.01,2013-03-09 17:33:00,
2013-03-09 11:38:00,59.9,42.2,29.95,East,79,6.3,6.7,52,0.00,,,0.00,VWS V13.01,2013-03-09 17:38:00,
2013-03-09 11:43:00,60.6,42.4,29.95,ESE,106,8.7,10.5,51,0.00,,,0.00,VWS V13.01,2013-03-09 17:43:00,
2013-03-09 11:48:00,60.6,42.4,29.95,East,92,4.9,8.1,51,0.00,,,0.00,VWS V13.01,2013-03-09 17:48:00,
2013-03-09 11:53:00,60.6,42.4,29.95,East,86,2.7,4.9,51,0.00,,,0.00,VWS V13.01,2013-03-09 17:53:00,
2013-03-09 11:58:00,61.0,42.7,29.92,East,94,6.7,6.7,51,0.00,,,0.00,VWS V13.01,2013-03-09 17:58:00,
2013-03-09 12:03:00,61.3,43.1,29.92,ENE,62,5.4,5.8,51,0.00,,,0.00,VWS V13.01,2013-03-09 18:03:00,
2013-03-09 12:08:00,61.9,44.1,29.92,SE,135,8.1,9.6,52,0.00,,,0.00,VWS V13.01,2013-03-09 18:08:00,
2013-03-09 12:13:00,62.6,43.7,29.92,East,93,5.4,10.5,50,0.00,,,0.00,VWS V13.01,2013-03-09 18:13:00,
2013-03-09 12:18:00,63.7,44.7,29.92,ENE,59,5.8,8.3,50,0.00,,,0.00,VWS V13.01,2013-03-09 18:18:00,
2013-03-09 12:23:00,63.7,43.6,29.92,ESE,117,10.5,10.5,48,0.00,,,0.00,VWS V13.01,2013-03-09 18:23:00,
2013-03-09 12:28:00,63.7,44.7,29.92,ENE,70,8.1,8.1,50,0.00,,,0.00,VWS V13.01,2013-03-09 18:28:00,
2013-03-09 12:33:00,63.8,44.3,29.92,ENE,75,5.8,10.1,49,0.00,,,0.00,VWS V13.01,2013-03-09 18:33:00,
2013-03-09 12:38:00,64.0,44.5,29.92,East,94,7.6,10.1,49,0.00,,,0.00,VWS V13.01,2013-03-09 18:38:00,
2013-03-09 12:43:00,63.8,44.9,29.92,SE,127,5.4,6.3,50,0.00,,,0.00,VWS V13.01,2013-03-09 18:43:00,
2013-03-09 12:48:00,63.3,43.8,29.89,ENE,66,5.4,10.1,49,0.00,,,0.00,VWS V13.01,2013-03-09 18:48:00,
2013-03-09 12:53:00,62.6,43.7,29.89,East,82,5.4,7.6,50,0.00,,,0.00,VWS V13.01,2013-03-09 18:53:00,
2013-03-09 12:58:00,62.4,43.5,29.89,ESE,104,3.6,6.3,50,0.00,,,0.00,VWS V13.01,2013-03-09 18:58:00,
2013-03-09 13:03:00,62.4,44.0,29.89,ENE,76,4.9,5.4,51,0.00,,,0.00,VWS V13.01,2013-03-09 19:03:00,
2013-03-09 13:08:00,62.2,44.4,29.89,ENE,76,4.0,5.4,52,0.00,,,0.00,VWS V13.01,2013-03-09 19:08:00,
2013-03-09 13:13:00,62.2,44.4,29.89,ENE,67,6.3,8.7,52,0.00,,,0.00,VWS V13.01,2013-03-09 19:13:00,
2013-03-09 13:18:00,62.0,44.2,29.89,SE,125,6.3,6.3,52,0.00,,,0.00,VWS V13.01,2013-03-09 19:18:00,
2013-03-09 13:23:00,61.9,44.6,29.89,ESE,103,4.9,4.9,53,0.00,,,0.00,VWS V13.01,2013-03-09 19:23:00,
2013-03-09 13:28:00,61.9,44.6,29.89,East,98,5.4,5.4,53,0.00,,,0.00,VWS V13.01,2013-03-09 19:28:00,
2013-03-09 13:33:00,61.9,44.6,29.86,East,101,8.1,8.1,53,0.00,,,0.00,VWS V13.01,2013-03-09 19:33:00,
2013-03-09 13:38:00,61.9,45.0,29.86,ENE,68,5.4,6.3,54,0.00,,,0.00,VWS V13.01,2013-03-09 19:38:00,
2013-03-09 13:43:00,61.9,44.6,29.86,SE,129,4.0,4.0,53,0.00,,,0.00,VWS V13.01,2013-03-09 19:43:00,
2013-03-09 13:48:00,61.7,44.4,29.86,East,96,3.6,3.6,53,0.00,,,0.00,VWS V13.01,2013-03-09 19:48:00,
2013-03-09 13:53:00,61.7,44.4,29.86,East,96,5.4,6.3,53,0.00,,,0.00,VWS V13.01,2013-03-09 19:53:00,
2013-03-09 13:58:00,61.9,44.6,29.83,ENE,75,3.1,3.1,53,0.00,,,0.00,VWS V13.01,2013-03-09 19:58:00,
2013-03-09 14:03:00,61.9,45.0,29.83,East,93,8.1,8.1,54,0.00,,,0.00,VWS V13.01,2013-03-09 20:03:00,
2013-03-09 14:08:00,61.9,45.0,29.83,ENE,78,6.3,6.3,54,0.00,,,0.00,VWS V13.01,2013-03-09 20:08:00,
2013-03-09 14:13:00,62.0,45.2,29.83,NE,51,5.4,5.4,54,0.00,,,0.00,VWS V13.01,2013-03-09 20:13:00,
2013-03-09 14:18:00,62.0,45.2,29.83,NE,55,4.0,5.8,54,0.00,,,0.00,VWS V13.01,2013-03-09 20:18:00,
2013-03-09 14:23:00,62.2,45.9,29.83,NNE,31,3.6,3.6,55,0.00,,,0.00,VWS V13.01,2013-03-09 20:23:00,
2013-03-09 14:28:00,62.2,45.9,29.83,NE,37,4.0,4.0,55,0.00,,,0.00,VWS V13.01,2013-03-09 20:28:00,
2013-03-09 14:33:00,62.2,45.9,29.83,ENE,58,4.9,6.3,55,0.00,,,0.00,VWS V13.01,2013-03-09 20:33:00,
2013-03-09 14:38:00,62.2,45.9,29.83,NE,56,4.9,4.9,55,0.00,,,0.00,VWS V13.01,2013-03-09 20:38:00,
2013-03-09 14:43:00,62.2,46.3,29.83,ENE,57,4.0,4.9,56,0.00,,,0.00,VWS V13.01,2013-03-09 20:43:00,
2013-03-09 14:48:00,62.2,46.3,29.83,East,89,2.7,2.7,56,0.00,,,0.00,VWS V13.01,2013-03-09 20:48:00,
2013-03-09 14:53:00,62.2,46.3,29.83,ESE,105,4.0,4.0,56,0.00,,,0.00,VWS V13.01,2013-03-09 20:53:00,
2013-03-09 14:58:00,62.8,46.8,29.83,East,89,5.8,7.6,56,0.00,,,0.00,VWS V13.01,2013-03-09 20:58:00,
2013-03-09 15:03:00,63.5,48.0,29.80,ESE,105,8.1,8.1,57,0.00,,,0.00,VWS V13.01,2013-03-09 21:03:00,
2013-03-09 15:08:00,64.0,48.5,29.80,East,88,5.8,5.8,57,0.00,,,0.00,VWS V13.01,2013-03-09 21:08:00,
2013-03-09 15:13:00,64.4,48.8,29.80,East,89,8.3,8.3,57,0.00,,,0.00,VWS V13.01,2013-03-09 21:13:00,
2013-03-09 15:18:00,64.7,49.2,29.80,East,94,8.3,8.3,57,0.00,,,0.00,VWS V13.01,2013-03-09 21:18:00,
2013-03-09 15:23:00,65.1,49.0,29.80,ENE,62,6.7,6.7,56,0.00,,,0.00,VWS V13.01,2013-03-09 21:23:00,
2013-03-09 15:28:00,65.5,49.4,29.80,East,95,8.7,8.7,56,0.00,,,0.00,VWS V13.01,2013-03-09 21:28:00,
2013-03-09 15:33:00,65.3,49.2,29.80,ESE,113,5.8,8.3,56,0.00,,,0.00,VWS V13.01,2013-03-09 21:33:00,
2013-03-09 15:38:00,65.5,49.4,29.80,ENE,68,7.6,7.6,56,0.00,,,0.00,VWS V13.01,2013-03-09 21:38:00,
2013-03-09 15:43:00,65.5,49.8,29.80,ESE,109,5.8,9.2,57,0.00,,,0.00,VWS V13.01,2013-03-09 21:43:00,
2013-03-09 15:48:00,65.5,49.8,29.80,ESE,115,5.4,6.3,57,0.00,,,0.00,VWS V13.01,2013-03-09 21:48:00,
2013-03-09 15:53:00,65.5,49.8,29.80,ESE,115,8.7,9.2,57,0.00,,,0.00,VWS V13.01,2013-03-09 21:53:00,
2013-03-09 15:58:00,65.5,49.8,29.80,ESE,106,6.3,8.7,57,0.00,,,0.00,VWS V13.01,2013-03-09 21:58:00,
2013-03-09 16:03:00,65.5,50.3,29.78,SE,126,5.8,8.3,58,0.00,,,0.00,VWS V13.01,2013-03-09 22:03:00,
2013-03-09 16:08:00,65.5,50.3,29.78,ENE,75,6.3,6.3,58,0.00,,,0.00,VWS V13.01,2013-03-09 22:08:00,
2013-03-09 16:13:00,65.5,50.3,29.78,ESE,121,3.1,7.6,58,0.00,,,0.00,VWS V13.01,2013-03-09 22:13:00,
2013-03-09 16:18:00,65.5,50.8,29.80,SE,124,5.4,6.3,59,0.00,,,0.00,VWS V13.01,2013-03-09 22:18:00,
2013-03-09 16:23:00,65.6,50.9,29.80,SSE,147,4.9,5.4,59,0.00,,,0.00,VWS V13.01,2013-03-09 22:23:00,
2013-03-09 16:28:00,66.0,51.3,29.80,SSE,157,3.6,3.6,59,0.00,,,0.00,VWS V13.01,2013-03-09 22:28:00,
2013-03-09 16:33:00,66.2,51.5,29.80,East,93,6.3,6.3,59,0.00,,,0.00,VWS V13.01,2013-03-09 22:33:00,
2013-03-09 16:38:00,66.5,51.3,29.80,ESE,106,5.8,6.3,58,0.00,,,0.00,VWS V13.01,2013-03-09 22:38:00,
2013-03-09 16:43:00,66.7,51.5,29.80,East,92,5.8,8.1,58,0.00,,,0.00,VWS V13.01,2013-03-09 22:43:00,
2013-03-09 16:48:00,66.9,51.2,29.80,East,94,7.2,7.2,57,0.00,,,0.00,VWS V13.01,2013-03-09 22:48:00,
2013-03-09 16:53:00,66.7,51.5,29.80,ESE,120,6.3,6.3,58,0.00,,,0.00,VWS V13.01,2013-03-09 22:53:00,
2013-03-09 16:58:00,66.5,50.8,29.80,SSE,147,8.1,10.1,57,0.00,,,0.00,VWS V13.01,2013-03-09 22:58:00,
2013-03-09 17:03:00,66.5,51.3,29.80,ESE,120,4.9,5.4,58,0.00,,,0.00,VWS V13.01,2013-03-09 23:03:00,
2013-03-09 17:08:00,66.4,51.2,29.80,East,90,4.0,4.5,58,0.00,,,0.00,VWS V13.01,2013-03-09 23:08:00,
2013-03-09 17:13:00,66.2,51.0,29.80,ESE,115,6.3,9.6,58,0.00,,,0.00,VWS V13.01,2013-03-09 23:13:00,
2013-03-09 17:18:00,66.2,51.0,29.78,SSE,151,4.0,5.8,58,0.00,,,0.00,VWS V13.01,2013-03-09 23:18:00,
2013-03-09 17:23:00,66.0,50.8,29.78,ESE,107,8.1,8.7,58,0.00,,,0.00,VWS V13.01,2013-03-09 23:23:00,
2013-03-09 17:28:00,65.8,51.1,29.78,ESE,108,5.8,8.7,59,0.00,,,0.00,VWS V13.01,2013-03-09 23:28:00,
2013-03-09 17:32:00,65.6,50.9,29.78,ESE,108,5.4,8.1,59,0.00,,,0.00,VWS V13.01,2013-03-09 23:32:00,
2013-03-09 17:37:00,65.5,51.2,29.78,East,86,6.3,6.3,60,0.00,,,0.00,VWS V13.01,2013-03-09 23:37:00,
2013-03-09 17:42:00,65.3,51.1,29.78,East,80,10.5,10.5,60,0.00,,,0.00,VWS V13.01,2013-03-09 23:42:00,
2013-03-09 17:47:00,65.1,50.9,29.78,SE,131,4.0,4.9,60,0.00,,,0.00,VWS V13.01,2013-03-09 23:47:00,
2013-03-09 17:52:00,64.9,51.2,29.78,East,98,5.8,7.6,61,0.00,,,0.00,VWS V13.01,2013-03-09 23:52:00,
2013-03-09 17:57:00,64.9,51.2,29.78,ESE,103,5.8,6.3,61,0.00,,,0.00,VWS V13.01,2013-03-09 23:57:00,
2013-03-09 18:02:00,64.7,51.0,29.78,SE,133,4.9,7.6,61,0.00,,,0.00,VWS V13.01,2013-03-10 00:02:00,
2013-03-09 18:07:00,64.7,51.0,29.78,ESE,110,4.5,4.9,61,0.00,,,0.00,VWS V13.01,2013-03-10 00:07:00,
2013-03-09 18:12:00,64.7,51.0,29.78,ESE,110,3.6,7.6,61,0.00,,,0.00,VWS V13.01,2013-03-10 00:12:00,
2013-03-09 18:17:00,64.9,51.2,29.78,East,100,6.3,8.7,61,0.00,,,0.00,VWS V13.01,2013-03-10 00:17:00,
2013-03-09 18:22:00,64.9,50.7,29.78,ESE,111,7.6,7.6,60,0.00,,,0.00,VWS V13.01,2013-03-10 00:22:00,
2013-03-09 18:27:00,65.1,50.9,29.78,SE,136,5.8,7.6,60,0.00,,,0.00,VWS V13.01,2013-03-10 00:27:00,
2013-03-09 18:32:00,65.1,50.9,29.75,SE,127,8.1,8.1,60,0.00,,,0.00,VWS V13.01,2013-03-10 00:32:00,
2013-03-09 18:37:00,65.1,50.9,29.75,SE,127,6.3,8.7,60,0.00,,,0.00,VWS V13.01,2013-03-10 00:37:00,
2013-03-09 18:42:00,65.1,50.9,29.75,East,101,3.6,6.3,60,0.00,,,0.00,VWS V13.01,2013-03-10 00:42:00,
2013-03-09 18:47:00,65.1,50.9,29.78,ESE,121,8.7,8.7,60,0.00,,,0.00,VWS V13.01,2013-03-10 00:47:00,
2013-03-09 18:52:00,65.1,50.9,29.78,ESE,112,5.4,5.4,60,0.00,,,0.00,VWS V13.01,2013-03-10 00:52:00,
2013-03-09 18:57:00,65.1,50.9,29.78,ENE,77,8.1,8.1,60,0.00,,,0.00,VWS V13.01,2013-03-10 00:57:00,
2013-03-09 19:02:00,64.9,50.7,29.78,East,97,5.4,12.8,60,0.00,,,0.00,VWS V13.01,2013-03-10 01:02:00,
2013-03-09 19:07:00,64.9,50.7,29.78,East,99,6.3,8.7,60,0.00,,,0.00,VWS V13.01,2013-03-10 01:07:00,
2013-03-09 19:12:00,64.9,51.2,29.78,East,96,4.9,8.3,61,0.00,,,0.00,VWS V13.01,2013-03-10 01:12:00,
2013-03-09 19:17:00,64.9,51.2,29.78,SE,126,7.6,8.3,61,0.00,,,0.00,VWS V13.01,2013-03-10 01:17:00,
2013-03-09 19:22:00,64.9,51.2,29.78,South,185,8.1,8.1,61,0.00,,,0.00,VWS V13.01,2013-03-10 01:22:00,
2013-03-09 19:27:00,64.9,51.2,29.78,East,85,4.0,8.1,61,0.00,,,0.00,VWS V13.01,2013-03-10 01:27:00,
2013-03-09 19:32:00,64.7,51.0,29.75,ESE,109,9.2,9.2,61,0.00,,,0.00,VWS V13.01,2013-03-10 01:32:00,
2013-03-09 19:37:00,64.9,51.6,29.75,East,94,8.1,8.3,62,0.00,,,0.00,VWS V13.01,2013-03-10 01:37:00,
2013-03-09 19:42:00,64.7,51.4,29.75,ESE,117,9.2,9.2,62,0.00,,,0.00,VWS V13.01,2013-03-10 01:42:00,
2013-03-09 19:47:00,64.7,51.4,29.78,SE,136,9.6,9.6,62,0.00,,,0.00,VWS V13.01,2013-03-10 01:47:00,
2013-03-09 19:52:00,64.7,51.4,29.78,East,92,8.3,8.3,62,0.00,,,0.00,VWS V13.01,2013-03-10 01:52:00,
2013-03-09 19:57:00,64.6,51.7,29.78,ESE,123,10.5,11.9,63,0.00,,,0.00,VWS V13.01,2013-03-10 01:57:00,
2013-03-09 20:02:00,64.4,51.5,29.78,SE,127,7.6,8.1,63,0.00,,,0.00,VWS V13.01,2013-03-10 02:02:00,
2013-03-09 20:07:00,64.2,51.4,29.78,ESE,112,4.0,5.8,63,0.00,,,0.00,VWS V13.01,2013-03-10 02:07:00,
2013-03-09 20:12:00,64.0,51.6,29.78,ESE,113,9.6,9.6,64,0.00,,,0.00,VWS V13.01,2013-03-10 02:12:00,
2013-03-09 20:17:00,63.7,51.7,29.78,East,91,11.0,13.2,65,0.00,,,0.00,VWS V13.01,2013-03-10 02:17:00,
2013-03-09 20:22:00,63.3,51.3,29.78,ESE,110,6.3,6.3,65,0.00,,,0.00,VWS V13.01,2013-03-10 02:22:00,
2013-03-09 20:27:00,63.1,51.2,29.78,SE,143,5.8,7.6,65,0.00,,,0.00,VWS V13.01,2013-03-10 02:27:00,
2013-03-09 20:32:00,63.1,51.2,29.78,ESE,106,7.6,8.3,65,0.00,,,0.00,VWS V13.01,2013-03-10 02:32:00,
2013-03-09 20:37:00,62.9,51.0,29.78,ESE,111,5.4,5.8,65,0.00,,,0.00,VWS V13.01,2013-03-10 02:37:00,
2013-03-09 20:42:00,62.8,50.8,29.78,East,89,8.7,8.7,65,0.00,,,0.00,VWS V13.01,2013-03-10 02:42:00,
2013-03-09 20:47:00,62.8,50.8,29.75,East,80,5.8,5.8,65,0.00,,,0.00,VWS V13.01,2013-03-10 02:47:00,
2013-03-09 20:52:00,62.6,50.7,29.75,ESE,118,5.4,8.1,65,0.00,,,0.00,VWS V13.01,2013-03-10 02:52:00,
2013-03-09 20:57:00,62.6,50.7,29.75,ESE,109,8.7,8.7,65,0.00,,,0.00,VWS V13.01,2013-03-10 02:57:00,
2013-03-09 21:02:00,62.6,50.7,29.75,East,98,8.1,8.3,65,0.00,,,0.00,VWS V13.01,2013-03-10 03:02:00,
2013-03-09 21:07:00,62.6,50.7,29.75,SSE,163,7.6,7.6,65,0.00,,,0.00,VWS V13.01,2013-03-10 03:07:00,
2013-03-09 21:12:00,62.8,50.4,29.75,ESE,111,8.3,12.8,64,0.00,,,0.00,VWS V13.01,2013-03-10 03:12:00,
2013-03-09 21:17:00,62.8,50.4,29.75,ESE,120,16.8,16.8,64,0.00,,,0.00,VWS V13.01,2013-03-10 03:17:00,
2013-03-09 21:22:00,62.8,50.4,29.75,ESE,108,6.3,6.3,64,0.00,,,0.00,VWS V13.01,2013-03-10 03:22:00,
2013-03-09 21:27:00,62.8,50.4,29.75,ESE,120,7.2,7.2,64,0.00,,,0.00,VWS V13.01,2013-03-10 03:27:00,
2013-03-09 21:32:00,62.8,50.4,29.75,East,101,6.3,6.3,64,0.00,,,0.00,VWS V13.01,2013-03-10 03:32:00,
2013-03-09 21:37:00,62.8,50.4,29.75,East,92,9.6,9.6,64,0.00,,,0.00,VWS V13.01,2013-03-10 03:37:00,
2013-03-09 21:42:00,62.8,50.4,29.75,SE,125,7.6,7.6,64,0.00,,,0.00,VWS V13.01,2013-03-10 03:42:00,
2013-03-09 21:47:00,62.9,50.6,29.75,East,86,7.6,11.4,64,0.00,,,0.00,VWS V13.01,2013-03-10 03:47:00,
2013-03-09 21:52:00,63.1,50.8,29.75,ESE,114,10.5,10.5,64,0.00,,,0.00,VWS V13.01,2013-03-10 03:52:00,
2013-03-09 21:57:00,63.1,50.8,29.75,East,99,7.6,10.5,64,0.00,,,0.00,VWS V13.01,2013-03-10 03:57:00,
2013-03-09 22:02:00,63.3,50.9,29.75,SE,125,8.1,11.0,64,0.00,,,0.00,VWS V13.01,2013-03-10 04:02:00,
2013-03-09 22:07:00,62.9,51.4,29.75,ESE,114,8.7,8.7,66,0.00,,,0.00,VWS V13.01,2013-03-10 04:07:00,
2013-03-09 22:12:00,61.9,51.6,29.75,East,85,10.5,11.0,69,0.00,,,0.00,VWS V13.01,2013-03-10 04:12:00,
2013-03-09 22:17:00,61.5,52.0,29.75,SE,124,5.8,5.8,71,0.00,,,0.00,VWS V13.01,2013-03-10 04:17:00,
2013-03-09 22:22:00,61.1,52.8,29.75,East,91,7.2,8.1,74,0.00,,,0.00,VWS V13.01,2013-03-10 04:22:00,
2013-03-09 22:27:00,60.6,53.4,29.75,SE,129,8.3,11.0,77,0.04,,,0.04,VWS V13.01,2013-03-10 04:27:00,
2013-03-09 22:32:00,60.1,53.9,29.75,East,94,6.7,10.5,80,0.04,,,0.04,VWS V13.01,2013-03-10 04:32:00,
2013-03-09 22:37:00,60.1,53.9,29.75,SE,143,4.9,8.7,80,0.04,,,0.04,VWS V13.01,2013-03-10 04:37:00,
2013-03-09 22:42:00,60.2,53.7,29.75,East,91,8.1,13.2,79,0.04,,,0.04,VWS V13.01,2013-03-10 04:42:00,
2013-03-09 22:47:00,60.2,54.0,29.75,ESE,103,6.3,8.7,80,0.04,,,0.04,VWS V13.01,2013-03-10 04:47:00,
2013-03-09 22:52:00,60.1,53.9,29.75,SE,124,7.6,7.6,80,0.04,,,0.04,VWS V13.01,2013-03-10 04:52:00,
2013-03-09 22:57:00,60.1,53.9,29.75,ESE,123,4.0,6.3,80,0.04,,,0.04,VWS V13.01,2013-03-10 04:57:00,
2013-03-09 23:00:00,60.1,53.9,29.75,SE,131,4.9,6.7,80,0.04,,,0.04,VWS V13.01,2013-03-10 05:00:00,
2013-03-09 23:05:00,60.2,54.0,29.75,SE,124,6.3,6.3,80,0.04,,,0.04,VWS V13.01,2013-03-10 05:05:00,
2013-03-09 23:10:00,60.4,54.2,29.75,ESE,108,5.4,5.4,80,0.04,,,0.04,VWS V13.01,2013-03-10 05:10:00,
2013-03-09 23:15:00,60.2,54.0,29.75,South,169,4.0,6.3,80,0.04,,,0.04,VWS V13.01,2013-03-10 05:15:00,
2013-03-09 23:20:00,60.2,54.0,29.75,South,185,9.2,9.2,80,0.04,,,0.04,VWS V13.01,2013-03-10 05:20:00,
2013-03-09 23:25:00,60.2,54.7,29.75,WSW,239,13.2,13.2,82,0.00,,,0.04,VWS V13.01,2013-03-10 05:25:00,
2013-03-09 23:30:00,58.6,53.5,29.80,SW,235,14.1,14.1,83,0.04,,,0.08,VWS V13.01,2013-03-10 05:30:00,
2013-03-09 23:35:00,57.2,54.0,29.80,WSW,239,9.2,11.0,89,0.16,,,0.20,VWS V13.01,2013-03-10 05:35:00,
2013-03-09 23:40:00,56.1,53.8,29.80,SW,215,5.8,7.6,92,0.28,,,0.31,VWS V13.01,2013-03-10 05:40:00,
2013-03-09 23:45:00,55.7,54.0,29.78,SW,227,0.0,2.7,94,0.28,,,0.31,VWS V13.01,2013-03-10 05:45:00,
2013-03-09 23:50:00,55.4,54.0,29.78,West,260,4.9,5.8,95,0.31,,,0.35,VWS V13.01,2013-03-10 05:50:00,
2013-03-09 23:55:00,55.2,54.7,29.78,WSW,252,8.1,8.1,98,0.35,,,0.39,VWS V13.01,2013-03-10 05:55:00,